createdAt,value
2022-07-28T00:00:16.924Z,1.52
2022-07-28T00:02:46.318Z,1.10
2022-07-28T00:05:14.594Z,1.10
2022-07-28T00:07:43.321Z,1.77
2022-07-28T00:10:11.542Z,1.25
2022-07-28T00:12:39.719Z,1.10
2022-07-28T00:15:08.552Z,1.10
2022-07-28T00:17:36.438Z,1.70
2022-07-28T00:20:07.287Z,1.50
2022-07-28T00:22:35.704Z,1.33
2022-07-28T00:25:04.197Z,1.20
2022-07-28T00:27:32.494Z,1.67
2022-07-28T00:30:00.364Z,1.20
2022-07-28T00:32:28.710Z,1.55
2022-07-28T00:34:56.820Z,1.30
2022-07-28T00:37:26.468Z,1.20
2022-07-28T00:39:54.551Z,1.38
2022-07-28T00:42:22.883Z,1.80
2022-07-28T00:44:50.773Z,1.20
2022-07-28T00:47:20.059Z,1.17
2022-07-28T00:49:48.248Z,1.30
2022-07-28T00:52:18.052Z,1.50
2022-07-28T00:54:47.329Z,1.33
2022-07-28T00:57:15.476Z,1.20
2022-07-28T00:59:43.634Z,1.67
2022-07-28T01:02:11.641Z,1.30
2022-07-28T01:04:39.745Z,1.23
2022-07-28T01:07:24.396Z,1.35
2022-07-28T01:10:00.047Z,1.55
2022-07-28T01:12:42.015Z,1.10
2022-07-28T01:15:19.911Z,1.13
2022-07-28T01:17:55.642Z,1.00
2022-07-28T01:20:29.811Z,1.30
2022-07-28T01:23:22.450Z,1.70
2022-07-28T01:26:07.084Z,1.20
2022-07-28T01:29:00.281Z,1.30
2022-07-28T01:31:35.030Z,1.05
2022-07-28T01:34:09.299Z,1.08
2022-07-28T01:36:42.809Z,1.20
2022-07-28T01:39:11.716Z,1.10
2022-07-28T01:41:42.387Z,1.50
2022-07-28T01:44:16.593Z,1.35
2022-07-28T01:46:48.003Z,1.50
2022-07-28T01:49:17.693Z,1.63
2022-07-28T01:51:47.493Z,1.10
2022-07-28T01:54:16.800Z,1.73
2022-07-28T01:56:47.848Z,1.40
2022-07-28T01:59:16.441Z,1.30
2022-07-28T02:01:48.122Z,1.80
2022-07-28T02:04:18.552Z,1.70
2022-07-28T02:06:48.412Z,1.30
2022-07-28T02:09:16.752Z,1.40
2022-07-28T02:11:49.964Z,1.80
2022-07-28T02:14:22.090Z,1.60
2022-07-28T02:16:55.222Z,1.30
2022-07-28T02:19:25.099Z,1.67
2022-07-28T02:21:55.317Z,1.77
2022-07-28T02:24:27.076Z,1.58
2022-07-28T02:27:02.112Z,1.50
2022-07-28T02:32:28.746Z,1.70
2022-07-28T02:35:01.773Z,1.40
2022-07-28T02:37:35.833Z,1.60
2022-07-28T02:40:05.332Z,1.48
2022-07-28T02:42:36.772Z,1.60
2022-07-28T02:45:09.788Z,1.50
2022-07-28T02:47:46.370Z,1.67
2022-07-28T02:50:17.508Z,1.55
2022-07-28T02:52:46.735Z,1.70
2022-07-28T02:55:17.143Z,1.67
2022-07-28T02:57:46.663Z,1.63
2022-07-28T03:00:15.622Z,2.10
2022-07-28T03:02:46.867Z,2.00
2022-07-28T03:05:15.956Z,1.88
2022-07-28T03:07:50.378Z,1.70
2022-07-28T03:10:33.898Z,1.80
2022-07-28T03:13:03.867Z,1.85
2022-07-28T03:15:32.255Z,1.88
2022-07-28T03:18:02.252Z,1.83
2022-07-28T03:20:30.537Z,1.58
2022-07-28T03:22:59.257Z,2.40
2022-07-28T03:25:31.615Z,1.88
2022-07-28T03:28:01.849Z,1.95
2022-07-28T03:30:35.938Z,1.90
2022-07-28T03:33:08.892Z,1.88
2022-07-28T03:35:40.534Z,2.10
2022-07-28T03:38:14.870Z,1.88
2022-07-28T03:40:47.400Z,1.80
2022-07-28T03:43:17.533Z,1.65
2022-07-28T03:45:46.870Z,2.08
2022-07-28T03:48:16.709Z,1.85
2022-07-28T03:50:44.906Z,2.00
2022-07-28T03:53:20.142Z,1.98
2022-07-28T03:55:50.771Z,1.73
2022-07-28T03:58:19.073Z,1.85
2022-07-28T04:00:47.253Z,1.83
2022-07-28T04:03:35.090Z,1.85
2022-07-28T04:06:07.100Z,2.05
2022-07-28T04:08:36.503Z,1.85
2022-07-28T04:11:04.737Z,2.00
2022-07-28T04:13:33.010Z,1.80
2022-07-28T04:16:03.806Z,1.90
2022-07-28T04:18:33.125Z,1.98
2022-07-28T04:21:01.319Z,1.77
2022-07-28T04:23:30.676Z,2.00
2022-07-28T04:25:58.970Z,1.98
2022-07-28T04:28:27.168Z,1.80
2022-07-28T04:30:55.480Z,2.03
2022-07-28T04:33:23.470Z,2.13
2022-07-28T04:35:53.809Z,2.28
2022-07-28T04:38:22.145Z,2.15
2022-07-28T04:40:50.447Z,2.35
2022-07-28T04:43:18.790Z,2.35
2022-07-28T04:45:53.560Z,2.25
2022-07-28T04:48:22.919Z,2.35
2022-07-28T04:50:52.380Z,2.28
2022-07-28T04:53:22.330Z,1.95
2022-07-28T04:55:51.722Z,2.35
2022-07-28T04:58:22.615Z,2.10
2022-07-28T05:00:51.779Z,2.10
2022-07-28T05:03:20.521Z,2.33
2022-07-28T05:05:54.539Z,2.53
2022-07-28T05:08:25.852Z,2.40
2022-07-28T05:10:55.101Z,1.98
2022-07-28T05:13:23.322Z,2.40
2022-07-28T05:15:51.488Z,2.03
2022-07-28T05:18:19.437Z,2.28
2022-07-28T05:20:47.787Z,2.17
2022-07-28T05:23:17.586Z,2.67
2022-07-28T05:25:47.448Z,2.47
2022-07-28T05:28:15.670Z,1.95
2022-07-28T05:30:45.437Z,2.00
2022-07-28T05:33:13.747Z,1.90
2022-07-28T05:35:41.947Z,2.50
2022-07-28T05:38:11.189Z,2.15
2022-07-28T05:40:39.667Z,1.80
2022-07-28T05:43:08.920Z,2.13
2022-07-28T05:45:37.210Z,2.10
2022-07-28T05:48:05.583Z,1.95
2022-07-28T05:50:33.916Z,2.28
2022-07-28T05:53:02.242Z,2.15
2022-07-28T05:55:30.559Z,1.83
2022-07-28T05:58:00.165Z,2.58
2022-07-28T06:00:29.665Z,2.63
2022-07-28T06:03:02.109Z,1.83
2022-07-28T06:05:31.368Z,1.83
2022-07-28T06:08:00.557Z,2.28
2022-07-28T06:10:51.636Z,2.10
2022-07-28T06:13:19.897Z,1.70
2022-07-28T06:15:49.729Z,1.80
2022-07-28T06:18:17.810Z,1.77
2022-07-28T06:20:47.852Z,1.60
2022-07-28T06:23:19.139Z,1.98
2022-07-28T06:25:47.910Z,1.77
2022-07-28T06:28:16.250Z,1.70
2022-07-28T06:30:44.363Z,1.95
2022-07-28T06:33:17.168Z,1.50
2022-07-28T06:35:48.291Z,1.50
2022-07-28T06:38:20.437Z,1.45
2022-07-28T06:40:48.806Z,2.08
2022-07-28T06:43:16.714Z,1.40
2022-07-28T06:45:45.955Z,1.38
2022-07-28T06:48:15.311Z,1.50
2022-07-28T06:50:43.703Z,1.65
2022-07-28T06:53:11.685Z,1.27
2022-07-28T06:55:41.285Z,1.30
2022-07-28T06:58:09.666Z,1.80
2022-07-28T07:00:37.665Z,1.67
2022-07-28T07:03:09.619Z,1.25
2022-07-28T07:05:39.060Z,1.48
2022-07-28T07:08:07.660Z,1.85
2022-07-28T07:10:36.207Z,1.45
2022-07-28T07:13:05.199Z,1.55
2022-07-28T07:15:34.877Z,1.35
2022-07-28T07:18:02.952Z,1.05
2022-07-28T07:20:30.969Z,1.75
2022-07-28T07:23:00.335Z,1.17
2022-07-28T07:25:28.627Z,1.35
2022-07-28T07:27:56.576Z,1.05
2022-07-28T07:30:24.523Z,1.38
2022-07-28T07:32:52.637Z,1.27
2022-07-28T07:35:20.500Z,1.10
2022-07-28T07:37:48.424Z,1.00
2022-07-28T07:40:17.828Z,1.00
2022-07-28T07:42:45.847Z,1.08
2022-07-28T07:45:14.960Z,1.35
2022-07-28T07:47:42.892Z,0.88
2022-07-28T07:50:11.117Z,1.15
2022-07-28T07:52:39.393Z,0.82
2022-07-28T07:55:08.524Z,1.20
2022-07-28T07:57:37.849Z,1.08
2022-07-28T08:00:07.091Z,1.25
2022-07-28T08:02:34.950Z,0.82
2022-07-28T08:05:02.972Z,0.90
2022-07-28T08:07:31.137Z,1.05
2022-07-28T08:09:59.353Z,1.15
2022-07-28T08:12:27.592Z,0.70
2022-07-28T08:14:57.117Z,0.70
2022-07-28T08:17:26.458Z,0.88
2022-07-28T08:19:54.518Z,1.00
2022-07-28T08:22:22.686Z,0.85
2022-07-28T08:24:50.682Z,0.98
2022-07-28T08:27:18.986Z,0.80
2022-07-28T08:29:46.863Z,0.80
2022-07-28T08:32:16.301Z,1.00
2022-07-28T08:34:44.324Z,0.80
2022-07-28T08:37:12.602Z,0.80
2022-07-28T08:39:40.603Z,0.93
2022-07-28T08:42:11.891Z,1.10
2022-07-28T08:44:46.718Z,0.80
2022-07-28T08:47:17.518Z,0.88
2022-07-28T08:49:46.385Z,0.73
2022-07-28T08:52:15.566Z,0.88
2022-07-28T08:54:46.415Z,1.00
2022-07-28T08:57:18.015Z,0.60
2022-07-28T08:59:47.544Z,0.73
2022-07-28T09:02:17.419Z,0.80
2022-07-28T09:04:46.310Z,1.17
2022-07-28T09:07:14.383Z,1.00
2022-07-28T09:09:42.268Z,0.82
2022-07-28T09:12:10.710Z,0.85
2022-07-28T09:14:38.765Z,0.80
2022-07-28T09:17:06.831Z,0.80
2022-07-28T09:19:37.583Z,1.00
2022-07-28T09:22:07.175Z,0.63
2022-07-28T09:24:37.160Z,0.70
2022-07-28T09:27:07.701Z,0.70
2022-07-28T09:29:36.488Z,1.02
2022-07-28T09:32:05.181Z,0.88
2022-07-28T09:34:42.594Z,0.77
2022-07-28T09:37:26.420Z,1.10
2022-07-28T09:39:59.163Z,0.82
2022-07-28T09:42:27.503Z,0.88
2022-07-28T09:45:22.463Z,0.93
2022-07-28T09:47:51.023Z,0.90
2022-07-28T09:50:24.060Z,0.95
2022-07-28T09:52:51.980Z,1.02
2022-07-28T09:55:19.986Z,0.90
2022-07-28T09:57:47.892Z,0.82
2022-07-28T10:00:28.278Z,1.10
2022-07-28T10:02:56.924Z,0.98
2022-07-28T10:05:40.799Z,0.80
2022-07-28T10:08:08.607Z,0.75
2022-07-28T10:10:36.630Z,0.90
2022-07-28T10:13:06.863Z,0.80
2022-07-28T10:15:52.332Z,0.95
2022-07-28T10:18:20.332Z,0.80
2022-07-28T10:20:51.166Z,0.73
2022-07-28T10:23:19.934Z,1.02
2022-07-28T10:25:47.973Z,1.10
2022-07-28T10:28:21.653Z,1.17
2022-07-28T10:30:53.040Z,0.98
2022-07-28T10:33:21.542Z,0.82
2022-07-28T10:35:55.100Z,0.98
2022-07-28T10:38:27.116Z,0.90
2022-07-28T10:40:59.380Z,0.63
2022-07-28T10:43:29.310Z,0.93
2022-07-28T10:46:06.810Z,0.80
2022-07-28T10:48:38.224Z,0.75
2022-07-28T10:51:07.916Z,0.63
2022-07-28T10:53:44.798Z,0.57
2022-07-28T10:56:19.015Z,0.88
2022-07-28T10:58:51.491Z,0.73
2022-07-28T11:01:52.874Z,1.02
2022-07-28T11:04:55.362Z,0.95
2022-07-28T11:07:24.880Z,0.90
2022-07-28T11:09:53.551Z,0.75
2022-07-28T11:12:49.453Z,0.80
2022-07-28T11:15:28.049Z,0.93
2022-07-28T11:18:03.751Z,0.95
2022-07-28T11:21:17.246Z,0.98
2022-07-28T11:23:48.897Z,0.70
2022-07-28T11:26:34.408Z,0.80
2022-07-28T11:29:21.701Z,0.80
2022-07-28T11:32:00.235Z,0.85
2022-07-28T11:34:28.608Z,0.70
2022-07-28T11:37:01.502Z,0.90
2022-07-28T11:39:42.667Z,0.90
2022-07-28T11:42:29.001Z,0.70
2022-07-28T11:44:58.340Z,1.00
2022-07-28T11:47:28.536Z,1.00
2022-07-28T11:50:13.145Z,0.90
2022-07-28T11:52:52.924Z,1.00
2022-07-28T11:55:55.849Z,0.90
2022-07-28T11:58:25.598Z,1.23
2022-07-28T12:01:13.516Z,0.70
2022-07-28T12:03:50.390Z,1.00
2022-07-28T12:06:28.791Z,0.57
2022-07-28T12:08:59.223Z,1.00
2022-07-28T12:11:33.775Z,1.08
2022-07-28T12:14:03.213Z,0.80
2022-07-28T12:16:32.742Z,0.75
2022-07-28T12:19:01.883Z,0.80
2022-07-28T12:21:46.483Z,0.98
2022-07-28T12:24:19.536Z,0.88
2022-07-28T12:26:50.440Z,1.02
2022-07-28T12:29:20.514Z,0.90
2022-07-28T12:31:58.818Z,0.90
2022-07-28T12:34:29.094Z,0.80
2022-07-28T12:36:58.883Z,1.00
2022-07-28T12:39:26.998Z,0.90
2022-07-28T12:42:04.572Z,0.77
2022-07-28T12:44:41.099Z,0.70
2022-07-28T12:47:12.359Z,0.82
2022-07-28T12:49:41.722Z,1.10
2022-07-28T12:52:17.194Z,0.98
2022-07-28T12:54:54.303Z,0.63
2022-07-28T12:57:49.951Z,0.90
2022-07-28T13:00:20.872Z,0.80
2022-07-28T13:02:49.693Z,1.00
2022-07-28T13:05:32.039Z,0.90
2022-07-28T13:08:03.712Z,0.70
2022-07-28T13:10:33.336Z,0.70
2022-07-28T13:13:04.469Z,0.80
2022-07-28T13:15:32.739Z,1.00
2022-07-28T13:18:01.375Z,1.05
2022-07-28T13:20:29.346Z,0.85
2022-07-28T13:22:57.637Z,0.80
2022-07-28T13:25:25.821Z,1.08
2022-07-28T13:27:55.063Z,1.00
2022-07-28T13:30:24.938Z,0.90
2022-07-28T13:32:54.652Z,0.80
2022-07-28T13:35:22.748Z,0.95
2022-07-28T13:37:51.023Z,0.75
2022-07-28T13:40:18.846Z,0.77
2022-07-28T13:42:52.931Z,0.90
2022-07-28T13:45:30.177Z,0.75
2022-07-28T13:47:58.418Z,0.80
2022-07-28T13:50:26.970Z,0.82
2022-07-28T13:52:54.981Z,1.00
2022-07-28T13:55:23.302Z,0.88
2022-07-28T13:57:55.035Z,0.88
2022-07-28T14:00:26.327Z,0.93
2022-07-28T14:02:54.875Z,0.90
2022-07-28T14:05:22.986Z,0.80
2022-07-28T14:07:51.587Z,0.80
2022-07-28T14:10:19.672Z,0.80
2022-07-28T14:12:47.775Z,0.60
2022-07-28T14:15:16.049Z,0.82
2022-07-28T14:17:46.402Z,0.80
2022-07-28T14:20:15.819Z,0.98
2022-07-28T14:22:47.349Z,1.00
2022-07-28T14:25:20.748Z,0.90
2022-07-28T14:27:50.732Z,0.70
2022-07-28T14:30:19.560Z,0.70
2022-07-28T14:32:49.192Z,0.90
2022-07-28T14:35:17.404Z,0.70
2022-07-28T14:40:39.246Z,1.17
2022-07-28T14:43:08.289Z,0.75
2022-07-28T14:45:51.382Z,0.80
2022-07-28T14:48:25.912Z,0.88
2022-07-28T14:50:55.383Z,0.90
2022-07-28T14:53:23.460Z,1.15
2022-07-28T14:55:51.471Z,1.10
2022-07-28T14:58:19.539Z,0.98
2022-07-28T15:00:47.345Z,1.00
2022-07-28T15:03:17.420Z,1.20
2022-07-28T15:05:47.732Z,0.85
2022-07-28T15:08:15.683Z,1.02
2022-07-28T15:10:43.603Z,0.88
2022-07-28T15:13:11.571Z,1.20
2022-07-28T15:15:44.607Z,0.80
2022-07-28T15:18:12.638Z,0.98
2022-07-28T15:20:40.567Z,1.13
2022-07-28T15:23:10.998Z,0.90
2022-07-28T15:25:39.122Z,0.93
2022-07-28T15:28:07.176Z,0.70
2022-07-28T15:30:35.197Z,0.70
2022-07-28T15:33:09.739Z,0.75
2022-07-28T15:35:59.131Z,0.73
2022-07-28T15:38:29.186Z,0.95
2022-07-28T15:40:58.738Z,0.80
2022-07-28T15:43:26.937Z,1.02
2022-07-28T15:45:57.359Z,1.23
2022-07-28T15:48:25.365Z,0.80
2022-07-28T15:50:53.284Z,1.15
2022-07-28T15:53:21.676Z,0.75
2022-07-28T15:55:51.904Z,0.90
2022-07-28T15:58:23.000Z,0.75
2022-07-28T16:00:51.588Z,1.10
2022-07-28T16:03:19.425Z,0.95
2022-07-28T16:05:49.814Z,0.73
2022-07-28T16:08:18.800Z,1.10
2022-07-28T16:10:54.654Z,1.00
2022-07-28T16:13:36.130Z,1.02
2022-07-28T16:16:05.008Z,1.00
2022-07-28T16:18:33.252Z,1.10
2022-07-28T16:21:01.207Z,0.82
2022-07-28T16:23:29.642Z,0.93
2022-07-28T16:25:59.245Z,0.73
2022-07-28T16:28:27.488Z,0.93
2022-07-28T16:30:56.568Z,0.88
2022-07-28T16:33:24.845Z,1.10
2022-07-28T16:35:53.350Z,1.05
2022-07-28T16:38:21.525Z,0.82
2022-07-28T16:40:49.804Z,1.08
2022-07-28T16:43:19.186Z,1.00
2022-07-28T16:45:47.429Z,1.00
2022-07-28T16:48:18.185Z,1.17
2022-07-28T16:50:46.264Z,0.80
2022-07-28T16:53:14.796Z,0.93
2022-07-28T16:55:42.991Z,1.00
2022-07-28T16:58:10.855Z,0.93
2022-07-28T17:00:41.756Z,0.75
2022-07-28T17:03:11.085Z,1.20
2022-07-28T17:05:39.560Z,1.00
2022-07-28T17:08:09.187Z,1.00
2022-07-28T17:10:37.191Z,1.08
2022-07-28T17:13:05.389Z,0.80
2022-07-28T17:15:34.220Z,1.10
2022-07-28T17:18:06.890Z,1.20
2022-07-28T17:20:35.262Z,0.90
2022-07-28T17:23:05.041Z,0.95
2022-07-28T17:25:59.214Z,0.98
2022-07-28T17:28:21.256Z,0.90
2022-07-28T17:30:51.275Z,1.05
2022-07-28T17:33:20.729Z,1.00
2022-07-28T17:35:48.901Z,0.98
2022-07-28T17:38:21.388Z,0.98
2022-07-28T17:40:51.079Z,0.70
2022-07-28T17:43:20.112Z,0.93
2022-07-28T17:45:49.588Z,0.93
2022-07-28T17:48:17.856Z,0.90
2022-07-28T17:50:47.258Z,1.10
2022-07-28T17:53:20.121Z,0.90
2022-07-28T17:56:00.373Z,0.80
2022-07-28T17:58:32.180Z,1.00
2022-07-28T18:01:09.531Z,0.90
2022-07-28T18:03:59.607Z,1.10
2022-07-28T18:06:32.113Z,1.00
2022-07-28T18:09:05.765Z,0.82
2022-07-28T18:11:55.959Z,1.10
2022-07-28T18:14:24.316Z,0.98
2022-07-28T18:16:52.295Z,1.23
2022-07-28T18:19:23.081Z,1.10
2022-07-28T18:21:52.331Z,0.70
2022-07-28T18:24:22.588Z,0.93
2022-07-28T18:26:53.501Z,0.95
2022-07-28T18:29:22.433Z,0.75
2022-07-28T18:31:51.372Z,0.90
2022-07-28T18:34:24.834Z,0.70
2022-07-28T18:36:54.836Z,0.90
2022-07-28T18:39:22.964Z,0.80
2022-07-28T18:41:51.411Z,1.02
2022-07-28T18:44:22.464Z,0.93
2022-07-28T18:46:50.573Z,1.00
2022-07-28T18:49:21.557Z,1.17
2022-07-28T18:51:49.783Z,0.98
2022-07-28T18:54:25.359Z,1.00
2022-07-28T18:56:56.084Z,0.97
2022-07-28T18:59:24.350Z,0.80
2022-07-28T19:01:52.940Z,1.13
2022-07-28T19:04:21.394Z,0.80
2022-07-28T19:06:49.753Z,1.10
2022-07-28T19:09:19.197Z,0.90
2022-07-28T19:11:47.136Z,0.90
2022-07-28T19:14:16.146Z,1.02
2022-07-28T19:16:44.807Z,0.70
2022-07-28T19:19:13.340Z,0.90
2022-07-28T19:21:43.868Z,1.02
2022-07-28T19:24:12.838Z,0.90
2022-07-28T19:26:44.198Z,1.10
2022-07-28T19:29:15.152Z,1.45
2022-07-28T19:31:43.043Z,1.15
2022-07-28T19:34:11.916Z,1.00
2022-07-28T19:36:41.469Z,0.90
2022-07-28T19:39:09.511Z,1.08
2022-07-28T19:41:37.811Z,0.90
2022-07-28T19:44:07.606Z,0.82
2022-07-28T19:46:39.362Z,0.90
2022-07-28T19:49:07.638Z,0.75
2022-07-28T19:51:44.914Z,1.17
2022-07-28T19:54:13.902Z,1.20
2022-07-28T19:56:47.375Z,0.90
2022-07-28T19:59:18.759Z,1.00
2022-07-28T20:01:47.158Z,1.05
2022-07-28T20:04:19.137Z,0.93
2022-07-28T20:06:50.883Z,1.02
2022-07-28T20:09:22.876Z,1.00
2022-07-28T20:11:51.431Z,1.15
2022-07-28T20:14:20.639Z,0.75
2022-07-28T20:16:49.911Z,1.10
2022-07-28T20:19:18.390Z,0.90
2022-07-28T20:21:46.777Z,0.98
2022-07-28T20:24:15.524Z,1.00
2022-07-28T20:26:45.743Z,1.08
2022-07-28T20:29:14.004Z,1.20
2022-07-28T20:31:45.228Z,1.52
2022-07-28T20:34:14.929Z,1.02
2022-07-28T20:36:43.746Z,0.90
2022-07-28T20:39:42.253Z,1.20
2022-07-28T20:42:00.034Z,1.60
2022-07-28T20:44:29.452Z,1.02
2022-07-28T20:47:00.325Z,1.20
2022-07-28T20:49:28.798Z,1.20
2022-07-28T20:51:56.849Z,0.90
2022-07-28T20:54:25.044Z,1.02
2022-07-28T20:56:53.674Z,1.10
2022-07-28T20:59:27.777Z,1.00
2022-07-28T21:01:56.370Z,0.98
2022-07-28T21:04:26.324Z,1.02
2022-07-28T21:07:01.485Z,0.90
2022-07-28T21:09:30.104Z,1.00
2022-07-28T21:11:58.312Z,0.90
2022-07-28T21:14:26.535Z,0.88
2022-07-28T21:16:54.882Z,1.20
2022-07-28T21:19:23.307Z,0.88
2022-07-28T21:21:54.983Z,1.20
2022-07-28T21:24:23.242Z,1.00
2022-07-28T21:26:51.789Z,1.02
2022-07-28T21:32:04.539Z,1.10
2022-07-28T21:34:34.526Z,1.08
2022-07-28T21:37:06.727Z,0.88
2022-07-28T21:39:35.760Z,0.80
2022-07-28T21:42:07.807Z,1.10
2022-07-28T21:44:36.861Z,1.10
2022-07-28T21:47:05.141Z,1.27
2022-07-28T21:49:32.990Z,0.88
2022-07-28T21:52:01.439Z,1.02
2022-07-28T21:54:30.671Z,1.33
2022-07-28T21:56:59.059Z,1.10
2022-07-28T21:59:27.064Z,1.30
2022-07-28T22:01:55.113Z,1.33
2022-07-28T22:04:23.476Z,0.80
2022-07-28T22:06:54.083Z,1.10
2022-07-28T22:09:22.150Z,1.25
2022-07-28T22:11:51.654Z,1.00
2022-07-28T22:14:19.777Z,1.08
2022-07-28T22:16:47.872Z,1.23
2022-07-28T22:19:16.119Z,1.40
2022-07-28T22:21:44.295Z,1.20
2022-07-28T22:24:12.683Z,1.30
2022-07-28T22:26:41.247Z,1.15
2022-07-28T22:29:11.009Z,1.00
2022-07-28T22:31:39.403Z,1.00
2022-07-28T22:34:07.340Z,1.30
2022-07-28T22:36:35.311Z,1.27
2022-07-28T22:39:03.532Z,0.93
2022-07-28T22:41:31.864Z,1.10
2022-07-28T22:44:00.030Z,1.50
2022-07-28T22:46:29.487Z,1.10
2022-07-28T22:48:57.448Z,0.88
2022-07-28T22:51:25.263Z,0.75
2022-07-28T22:53:53.795Z,1.10
2022-07-28T22:56:22.184Z,1.10
2022-07-28T22:58:50.353Z,1.20
2022-07-28T23:01:18.988Z,1.33
2022-07-28T23:03:48.815Z,1.33
2022-07-28T23:06:17.202Z,1.23
2022-07-28T23:08:45.287Z,1.00
2022-07-28T23:11:13.241Z,1.10
2022-07-28T23:13:41.135Z,0.98
2022-07-28T23:16:09.354Z,0.90
2022-07-28T23:18:39.986Z,0.98
2022-07-28T23:21:10.258Z,0.98
2022-07-28T23:23:38.765Z,1.25
2022-07-28T23:26:06.978Z,0.93
2022-07-28T23:28:36.235Z,1.33
2022-07-28T23:31:04.415Z,1.20
2022-07-28T23:33:55.752Z,1.00
2022-07-28T23:36:26.075Z,1.20
2022-07-28T23:38:55.635Z,1.30
2022-07-28T23:41:23.933Z,1.67
2022-07-28T23:43:52.024Z,1.20
2022-07-28T23:46:20.053Z,1.08
2022-07-28T23:48:48.607Z,1.25
2022-07-28T23:51:16.770Z,1.00
2022-07-28T23:53:46.471Z,1.30
2022-07-28T23:56:15.277Z,1.08
2022-07-28T23:58:43.475Z,1.10
